sensor_id;sensor_type;location;lat;lon;timestamp;P1;durP1;ratioP1;P2;durP2;ratioP2
6977;SDS011;3529;53.244;10.414;2022-08-21T00:01:33;1.40;;;1.40;;
6977;SDS011;3529;53.244;10.414;2022-08-21T00:04:03;1.30;;;1.30;;
6977;SDS011;3529;53.244;10.414;2022-08-21T00:06:34;1.20;;;1.20;;
6977;SDS011;3529;53.244;10.414;2022-08-21T00:09:00;1.52;;;1.48;;
6977;SDS011;3529;53.244;10.414;2022-08-21T00:11:27;1.70;;;1.60;;
6977;SDS011;3529;53.244;10.414;2022-08-21T00:13:53;1.55;;;1.52;;
6977;SDS011;3529;53.244;10.414;2022-08-21T00:16:19;1.27;;;1.27;;
6977;SDS011;3529;53.244;10.414;2022-08-21T00:18:45;1.38;;;1.38;;
6977;SDS011;3529;53.244;10.414;2022-08-21T00:21:11;1.70;;;1.60;;
6977;SDS011;3529;53.244;10.414;2022-08-21T00:23:38;1.17;;;1.17;;
6977;SDS011;3529;53.244;10.414;2022-08-21T00:26:03;3.05;;;2.05;;
6977;SDS011;3529;53.244;10.414;2022-08-21T00:28:30;1.55;;;1.48;;
6977;SDS011;3529;53.244;10.414;2022-08-21T00:30:55;1.30;;;1.30;;
6977;SDS011;3529;53.244;10.414;2022-08-21T00:33:21;1.60;;;1.50;;
6977;SDS011;3529;53.244;10.414;2022-08-21T00:35:47;1.70;;;1.60;;
6977;SDS011;3529;53.244;10.414;2022-08-21T00:38:13;1.40;;;1.40;;
6977;SDS011;3529;53.244;10.414;2022-08-21T00:40:44;1.20;;;1.20;;
6977;SDS011;3529;53.244;10.414;2022-08-21T00:43:18;1.30;;;1.30;;
6977;SDS011;3529;53.244;10.414;2022-08-21T00:45:46;1.40;;;1.40;;
6977;SDS011;3529;53.244;10.414;2022-08-21T00:48:12;1.20;;;1.20;;
6977;SDS011;3529;53.244;10.414;2022-08-21T00:50:40;1.10;;;1.10;;
6977;SDS011;3529;53.244;10.414;2022-08-21T00:53:12;1.50;;;1.50;;
6977;SDS011;3529;53.244;10.414;2022-08-21T00:55:39;1.55;;;1.45;;
6977;SDS011;3529;53.244;10.414;2022-08-21T00:58:06;1.20;;;1.20;;
6977;SDS011;3529;53.244;10.414;2022-08-21T01:00:35;1.50;;;1.45;;
6977;SDS011;3529;53.244;10.414;2022-08-21T01:03:06;1.17;;;1.17;;
6977;SDS011;3529;53.244;10.414;2022-08-21T01:05:36;1.30;;;1.30;;
6977;SDS011;3529;53.244;10.414;2022-08-21T01:08:03;1.63;;;1.58;;
6977;SDS011;3529;53.244;10.414;2022-08-21T01:10:29;1.27;;;1.27;;
6977;SDS011;3529;53.244;10.414;2022-08-21T01:12:56;1.58;;;1.55;;
6977;SDS011;3529;53.244;10.414;2022-08-21T01:15:24;1.27;;;1.27;;
6977;SDS011;3529;53.244;10.414;2022-08-21T01:17:55;1.35;;;1.35;;
6977;SDS011;3529;53.244;10.414;2022-08-21T01:20:20;1.67;;;1.60;;
6977;SDS011;3529;53.244;10.414;2022-08-21T01:22:46;1.20;;;1.20;;
6977;SDS011;3529;53.244;10.414;2022-08-21T01:25:13;1.27;;;1.27;;
6977;SDS011;3529;53.244;10.414;2022-08-21T01:27:40;1.30;;;1.30;;
6977;SDS011;3529;53.244;10.414;2022-08-21T01:30:11;1.50;;;1.42;;
6977;SDS011;3529;53.244;10.414;2022-08-21T01:32:40;1.20;;;1.20;;
6977;SDS011;3529;53.244;10.414;2022-08-21T01:35:07;1.13;;;1.13;;
6977;SDS011;3529;53.244;10.414;2022-08-21T01:37:33;1.13;;;1.08;;
6977;SDS011;3529;53.244;10.414;2022-08-21T01:39:59;1.23;;;1.23;;
6977;SDS011;3529;53.244;10.414;2022-08-21T01:42:25;1.42;;;1.42;;
6977;SDS011;3529;53.244;10.414;2022-08-21T01:44:51;1.20;;;1.20;;
6977;SDS011;3529;53.244;10.414;2022-08-21T01:47:17;1.48;;;1.35;;
6977;SDS011;3529;53.244;10.414;2022-08-21T01:49:43;1.45;;;1.45;;
6977;SDS011;3529;53.244;10.414;2022-08-21T01:52:09;1.25;;;1.25;;
6977;SDS011;3529;53.244;10.414;2022-08-21T01:54:36;1.30;;;1.30;;
6977;SDS011;3529;53.244;10.414;2022-08-21T01:57:03;0.90;;;0.90;;
6977;SDS011;3529;53.244;10.414;2022-08-21T01:59:30;1.48;;;1.48;;
6977;SDS011;3529;53.244;10.414;2022-08-21T02:01:56;1.30;;;1.30;;
6977;SDS011;3529;53.244;10.414;2022-08-21T02:04:22;1.33;;;1.33;;
6977;SDS011;3529;53.244;10.414;2022-08-21T02:06:48;1.55;;;1.45;;
6977;SDS011;3529;53.244;10.414;2022-08-21T02:09:14;1.63;;;1.63;;
6977;SDS011;3529;53.244;10.414;2022-08-21T02:11:41;1.40;;;1.40;;
6977;SDS011;3529;53.244;10.414;2022-08-21T02:14:07;1.58;;;1.58;;
6977;SDS011;3529;53.244;10.414;2022-08-21T02:16:38;1.10;;;1.10;;
6977;SDS011;3529;53.244;10.414;2022-08-21T02:19:05;1.77;;;1.67;;
6977;SDS011;3529;53.244;10.414;2022-08-21T02:21:31;1.33;;;1.30;;
6977;SDS011;3529;53.244;10.414;2022-08-21T02:23:57;1.52;;;1.42;;
6977;SDS011;3529;53.244;10.414;2022-08-21T02:26:23;1.35;;;1.35;;
6977;SDS011;3529;53.244;10.414;2022-08-21T02:28:49;1.25;;;1.25;;
6977;SDS011;3529;53.244;10.414;2022-08-21T02:31:14;1.80;;;1.70;;
6977;SDS011;3529;53.244;10.414;2022-08-21T02:33:40;1.45;;;1.45;;
6977;SDS011;3529;53.244;10.414;2022-08-21T02:36:07;1.60;;;1.50;;
6977;SDS011;3529;53.244;10.414;2022-08-21T02:38:34;1.25;;;1.25;;
6977;SDS011;3529;53.244;10.414;2022-08-21T02:41:04;1.23;;;1.23;;
6977;SDS011;3529;53.244;10.414;2022-08-21T02:43:32;1.20;;;1.20;;
6977;SDS011;3529;53.244;10.414;2022-08-21T02:45:58;1.63;;;1.52;;
6977;SDS011;3529;53.244;10.414;2022-08-21T02:48:25;1.47;;;1.40;;
6977;SDS011;3529;53.244;10.414;2022-08-21T02:50:57;1.08;;;1.08;;
6977;SDS011;3529;53.244;10.414;2022-08-21T02:53:24;1.15;;;1.15;;
6977;SDS011;3529;53.244;10.414;2022-08-21T02:55:51;1.50;;;1.50;;
6977;SDS011;3529;53.244;10.414;2022-08-21T02:58:19;1.25;;;1.25;;
6977;SDS011;3529;53.244;10.414;2022-08-21T03:00:48;1.40;;;1.40;;
6977;SDS011;3529;53.244;10.414;2022-08-21T03:03:14;1.25;;;1.25;;
6977;SDS011;3529;53.244;10.414;2022-08-21T03:05:40;1.20;;;1.20;;
6977;SDS011;3529;53.244;10.414;2022-08-21T03:08:08;1.48;;;1.45;;
6977;SDS011;3529;53.244;10.414;2022-08-21T03:10:37;1.30;;;1.30;;
6977;SDS011;3529;53.244;10.414;2022-08-21T03:13:04;1.20;;;1.20;;
6977;SDS011;3529;53.244;10.414;2022-08-21T03:15:30;1.20;;;1.20;;
6977;SDS011;3529;53.244;10.414;2022-08-21T03:17:56;1.10;;;1.10;;
6977;SDS011;3529;53.244;10.414;2022-08-21T03:20:23;1.50;;;1.50;;
6977;SDS011;3529;53.244;10.414;2022-08-21T03:22:50;1.30;;;1.30;;
6977;SDS011;3529;53.244;10.414;2022-08-21T03:25:16;1.30;;;1.30;;
6977;SDS011;3529;53.244;10.414;2022-08-21T03:27:43;1.87;;;1.77;;
6977;SDS011;3529;53.244;10.414;2022-08-21T03:30:10;1.52;;;1.52;;
6977;SDS011;3529;53.244;10.414;2022-08-21T03:32:36;1.50;;;1.50;;
6977;SDS011;3529;53.244;10.414;2022-08-21T03:35:03;1.20;;;1.20;;
6977;SDS011;3529;53.244;10.414;2022-08-21T03:37:29;1.30;;;1.30;;
6977;SDS011;3529;53.244;10.414;2022-08-21T03:39:55;1.37;;;1.37;;
6977;SDS011;3529;53.244;10.414;2022-08-21T03:42:20;1.10;;;1.10;;
6977;SDS011;3529;53.244;10.414;2022-08-21T03:44:46;1.20;;;1.20;;
6977;SDS011;3529;53.244;10.414;2022-08-21T03:47:12;1.20;;;1.20;;
6977;SDS011;3529;53.244;10.414;2022-08-21T03:49:37;1.47;;;1.47;;
6977;SDS011;3529;53.244;10.414;2022-08-21T03:52:03;1.50;;;1.50;;
6977;SDS011;3529;53.244;10.414;2022-08-21T03:54:30;1.30;;;1.30;;
6977;SDS011;3529;53.244;10.414;2022-08-21T03:56:55;1.50;;;1.50;;
6977;SDS011;3529;53.244;10.414;2022-08-21T03:59:21;1.20;;;1.20;;
6977;SDS011;3529;53.244;10.414;2022-08-21T04:01:51;1.23;;;1.23;;
6977;SDS011;3529;53.244;10.414;2022-08-21T04:04:18;1.27;;;1.27;;
6977;SDS011;3529;53.244;10.414;2022-08-21T04:06:44;1.40;;;1.40;;
6977;SDS011;3529;53.244;10.414;2022-08-21T04:09:09;1.33;;;1.23;;
6977;SDS011;3529;53.244;10.414;2022-08-21T04:11:35;1.50;;;1.50;;
6977;SDS011;3529;53.244;10.414;2022-08-21T04:14:01;1.23;;;1.23;;
6977;SDS011;3529;53.244;10.414;2022-08-21T04:16:27;1.40;;;1.40;;
6977;SDS011;3529;53.244;10.414;2022-08-21T04:18:53;1.50;;;1.50;;
6977;SDS011;3529;53.244;10.414;2022-08-21T04:21:18;1.17;;;1.17;;
6977;SDS011;3529;53.244;10.414;2022-08-21T04:23:44;1.40;;;1.40;;
6977;SDS011;3529;53.244;10.414;2022-08-21T04:26:09;1.60;;;1.60;;
6977;SDS011;3529;53.244;10.414;2022-08-21T04:28:35;1.40;;;1.40;;
6977;SDS011;3529;53.244;10.414;2022-08-21T04:31:01;1.23;;;1.23;;
6977;SDS011;3529;53.244;10.414;2022-08-21T04:33:26;1.80;;;1.70;;
6977;SDS011;3529;53.244;10.414;2022-08-21T04:35:52;1.30;;;1.30;;
6977;SDS011;3529;53.244;10.414;2022-08-21T04:38:18;1.50;;;1.50;;
6977;SDS011;3529;53.244;10.414;2022-08-21T04:40:44;1.38;;;1.38;;
6977;SDS011;3529;53.244;10.414;2022-08-21T04:43:10;1.40;;;1.40;;
6977;SDS011;3529;53.244;10.414;2022-08-21T04:45:40;1.60;;;1.50;;
6977;SDS011;3529;53.244;10.414;2022-08-21T04:48:08;1.47;;;1.47;;
6977;SDS011;3529;53.244;10.414;2022-08-21T04:50:40;1.40;;;1.40;;
6977;SDS011;3529;53.244;10.414;2022-08-21T04:53:15;1.40;;;1.40;;
6977;SDS011;3529;53.244;10.414;2022-08-21T04:55:44;1.73;;;1.63;;
6977;SDS011;3529;53.244;10.414;2022-08-21T04:58:11;1.70;;;1.60;;
6977;SDS011;3529;53.244;10.414;2022-08-21T05:00:39;1.50;;;1.50;;
6977;SDS011;3529;53.244;10.414;2022-08-21T05:03:05;1.47;;;1.47;;
6977;SDS011;3529;53.244;10.414;2022-08-21T05:05:32;1.33;;;1.33;;
6977;SDS011;3529;53.244;10.414;2022-08-21T05:07:59;1.30;;;1.30;;
6977;SDS011;3529;53.244;10.414;2022-08-21T05:10:26;1.60;;;1.60;;
6977;SDS011;3529;53.244;10.414;2022-08-21T05:12:52;1.58;;;1.58;;
6977;SDS011;3529;53.244;10.414;2022-08-21T05:15:18;1.87;;;1.77;;
6977;SDS011;3529;53.244;10.414;2022-08-21T05:17:44;1.30;;;1.30;;
6977;SDS011;3529;53.244;10.414;2022-08-21T05:20:10;1.65;;;1.55;;
6977;SDS011;3529;53.244;10.414;2022-08-21T05:22:37;1.60;;;1.50;;
6977;SDS011;3529;53.244;10.414;2022-08-21T05:25:03;1.40;;;1.40;;
6977;SDS011;3529;53.244;10.414;2022-08-21T05:27:30;1.50;;;1.50;;
6977;SDS011;3529;53.244;10.414;2022-08-21T05:29:56;1.40;;;1.40;;
6977;SDS011;3529;53.244;10.414;2022-08-21T05:32:21;1.60;;;1.60;;
6977;SDS011;3529;53.244;10.414;2022-08-21T05:34:47;1.10;;;1.10;;
6977;SDS011;3529;53.244;10.414;2022-08-21T05:37:13;1.40;;;1.40;;
6977;SDS011;3529;53.244;10.414;2022-08-21T05:39:38;1.40;;;1.40;;
6977;SDS011;3529;53.244;10.414;2022-08-21T05:42:04;1.40;;;1.40;;
6977;SDS011;3529;53.244;10.414;2022-08-21T05:44:30;1.40;;;1.40;;
6977;SDS011;3529;53.244;10.414;2022-08-21T05:47:01;1.67;;;1.60;;
6977;SDS011;3529;53.244;10.414;2022-08-21T05:49:30;1.30;;;1.30;;
6977;SDS011;3529;53.244;10.414;2022-08-21T05:51:56;1.35;;;1.35;;
6977;SDS011;3529;53.244;10.414;2022-08-21T05:54:22;2.47;;;1.25;;
6977;SDS011;3529;53.244;10.414;2022-08-21T05:56:47;1.42;;;1.35;;
6977;SDS011;3529;53.244;10.414;2022-08-21T05:59:13;1.45;;;1.40;;
6977;SDS011;3529;53.244;10.414;2022-08-21T06:01:39;1.50;;;1.50;;
6977;SDS011;3529;53.244;10.414;2022-08-21T06:04:05;1.40;;;1.40;;
6977;SDS011;3529;53.244;10.414;2022-08-21T06:06:31;1.17;;;1.17;;
6977;SDS011;3529;53.244;10.414;2022-08-21T06:08:57;1.40;;;1.40;;
6977;SDS011;3529;53.244;10.414;2022-08-21T06:11:23;1.55;;;1.45;;
6977;SDS011;3529;53.244;10.414;2022-08-21T06:13:48;1.15;;;1.15;;
6977;SDS011;3529;53.244;10.414;2022-08-21T06:16:15;1.17;;;1.17;;
6977;SDS011;3529;53.244;10.414;2022-08-21T06:18:41;1.05;;;1.05;;
6977;SDS011;3529;53.244;10.414;2022-08-21T06:21:08;1.40;;;1.40;;
6977;SDS011;3529;53.244;10.414;2022-08-21T06:23:34;1.40;;;1.40;;
6977;SDS011;3529;53.244;10.414;2022-08-21T06:26:01;1.40;;;1.40;;
6977;SDS011;3529;53.244;10.414;2022-08-21T06:28:27;1.20;;;1.20;;
6977;SDS011;3529;53.244;10.414;2022-08-21T06:30:53;1.00;;;1.00;;
6977;SDS011;3529;53.244;10.414;2022-08-21T06:33:19;1.10;;;1.10;;
6977;SDS011;3529;53.244;10.414;2022-08-21T06:35:45;1.33;;;1.33;;
6977;SDS011;3529;53.244;10.414;2022-08-21T06:38:10;1.10;;;1.10;;
6977;SDS011;3529;53.244;10.414;2022-08-21T06:40:36;1.15;;;1.15;;
6977;SDS011;3529;53.244;10.414;2022-08-21T06:43:09;1.30;;;1.30;;
6977;SDS011;3529;53.244;10.414;2022-08-21T06:45:36;1.48;;;1.42;;
6977;SDS011;3529;53.244;10.414;2022-08-21T06:48:02;1.42;;;1.35;;
6977;SDS011;3529;53.244;10.414;2022-08-21T06:50:29;1.27;;;1.27;;
6977;SDS011;3529;53.244;10.414;2022-08-21T06:53:02;1.20;;;1.20;;
6977;SDS011;3529;53.244;10.414;2022-08-21T06:55:30;1.17;;;1.17;;
6977;SDS011;3529;53.244;10.414;2022-08-21T06:57:57;1.40;;;1.40;;
6977;SDS011;3529;53.244;10.414;2022-08-21T07:00:22;1.15;;;1.15;;
6977;SDS011;3529;53.244;10.414;2022-08-21T07:02:48;1.52;;;1.40;;
6977;SDS011;3529;53.244;10.414;2022-08-21T07:05:14;2.13;;;1.30;;
6977;SDS011;3529;53.244;10.414;2022-08-21T07:07:39;1.50;;;1.40;;
6977;SDS011;3529;53.244;10.414;2022-08-21T07:10:05;1.17;;;1.17;;
6977;SDS011;3529;53.244;10.414;2022-08-21T07:12:31;1.13;;;1.13;;
6977;SDS011;3529;53.244;10.414;2022-08-21T07:14:56;1.30;;;1.30;;
6977;SDS011;3529;53.244;10.414;2022-08-21T07:17:23;1.88;;;1.40;;
6977;SDS011;3529;53.244;10.414;2022-08-21T07:19:49;1.17;;;1.17;;
6977;SDS011;3529;53.244;10.414;2022-08-21T07:22:16;1.15;;;1.15;;
6977;SDS011;3529;53.244;10.414;2022-08-21T07:24:44;1.58;;;1.48;;
6977;SDS011;3529;53.244;10.414;2022-08-21T07:27:10;1.23;;;1.17;;
6977;SDS011;3529;53.244;10.414;2022-08-21T07:29:35;1.10;;;1.10;;
6977;SDS011;3529;53.244;10.414;2022-08-21T07:32:01;1.00;;;1.00;;
6977;SDS011;3529;53.244;10.414;2022-08-21T07:34:27;1.10;;;1.10;;
6977;SDS011;3529;53.244;10.414;2022-08-21T07:36:52;1.52;;;1.42;;
6977;SDS011;3529;53.244;10.414;2022-08-21T07:39:18;1.40;;;1.30;;
6977;SDS011;3529;53.244;10.414;2022-08-21T07:41:43;1.30;;;1.30;;
6977;SDS011;3529;53.244;10.414;2022-08-21T07:44:09;1.00;;;1.00;;
6977;SDS011;3529;53.244;10.414;2022-08-21T07:46:34;1.10;;;1.10;;
6977;SDS011;3529;53.244;10.414;2022-08-21T07:49:00;1.02;;;1.02;;
6977;SDS011;3529;53.244;10.414;2022-08-21T07:51:26;1.33;;;1.33;;
6977;SDS011;3529;53.244;10.414;2022-08-21T07:53:54;1.05;;;1.05;;
6977;SDS011;3529;53.244;10.414;2022-08-21T07:56:21;1.63;;;1.52;;
6977;SDS011;3529;53.244;10.414;2022-08-21T07:58:47;0.98;;;0.98;;
6977;SDS011;3529;53.244;10.414;2022-08-21T08:01:13;1.30;;;1.20;;
6977;SDS011;3529;53.244;10.414;2022-08-21T08:03:39;1.02;;;1.02;;
6977;SDS011;3529;53.244;10.414;2022-08-21T08:06:05;2.38;;;1.13;;
6977;SDS011;3529;53.244;10.414;2022-08-21T08:08:33;0.90;;;0.90;;
6977;SDS011;3529;53.244;10.414;2022-08-21T08:10:59;1.10;;;1.10;;
6977;SDS011;3529;53.244;10.414;2022-08-21T08:13:26;1.50;;;1.40;;
6977;SDS011;3529;53.244;10.414;2022-08-21T08:15:52;0.90;;;0.90;;
6977;SDS011;3529;53.244;10.414;2022-08-21T08:18:18;1.00;;;1.00;;
6977;SDS011;3529;53.244;10.414;2022-08-21T08:20:43;1.10;;;1.10;;
6977;SDS011;3529;53.244;10.414;2022-08-21T08:23:10;1.30;;;1.25;;
6977;SDS011;3529;53.244;10.414;2022-08-21T08:25:39;1.42;;;1.38;;
6977;SDS011;3529;53.244;10.414;2022-08-21T08:28:05;2.25;;;1.30;;
6977;SDS011;3529;53.244;10.414;2022-08-21T08:30:31;1.05;;;0.95;;
6977;SDS011;3529;53.244;10.414;2022-08-21T08:32:58;1.85;;;1.00;;
6977;SDS011;3529;53.244;10.414;2022-08-21T08:35:24;4.55;;;1.38;;
6977;SDS011;3529;53.244;10.414;2022-08-21T08:37:50;1.50;;;1.50;;
6977;SDS011;3529;53.244;10.414;2022-08-21T08:42:58;1.05;;;1.05;;
6977;SDS011;3529;53.244;10.414;2022-08-21T08:45:24;0.98;;;0.98;;
6977;SDS011;3529;53.244;10.414;2022-08-21T08:47:52;0.80;;;0.80;;
6977;SDS011;3529;53.244;10.414;2022-08-21T08:53:09;0.90;;;0.90;;
6977;SDS011;3529;53.244;10.414;2022-08-21T08:55:41;1.10;;;1.10;;
6977;SDS011;3529;53.244;10.414;2022-08-21T08:58:09;1.20;;;1.20;;
6977;SDS011;3529;53.244;10.414;2022-08-21T09:00:41;1.80;;;1.13;;
6977;SDS011;3529;53.244;10.414;2022-08-21T09:03:08;1.08;;;1.08;;
6977;SDS011;3529;53.244;10.414;2022-08-21T09:06:13;0.90;;;0.90;;
6977;SDS011;3529;53.244;10.414;2022-08-21T09:11:32;2.67;;;1.42;;
6977;SDS011;3529;53.244;10.414;2022-08-21T09:16:59;0.80;;;0.80;;
6977;SDS011;3529;53.244;10.414;2022-08-21T09:20:08;0.80;;;0.80;;
6977;SDS011;3529;53.244;10.414;2022-08-21T09:23:22;0.80;;;0.80;;
6977;SDS011;3529;53.244;10.414;2022-08-21T09:26:12;2.97;;;0.88;;
6977;SDS011;3529;53.244;10.414;2022-08-21T09:28:40;0.90;;;0.90;;
6977;SDS011;3529;53.244;10.414;2022-08-21T09:31:26;0.80;;;0.80;;
6977;SDS011;3529;53.244;10.414;2022-08-21T09:34:01;1.05;;;1.05;;
6977;SDS011;3529;53.244;10.414;2022-08-21T09:36:37;0.82;;;0.82;;
6977;SDS011;3529;53.244;10.414;2022-08-21T09:39:03;1.00;;;0.80;;
6977;SDS011;3529;53.244;10.414;2022-08-21T09:41:31;0.80;;;0.80;;
6977;SDS011;3529;53.244;10.414;2022-08-21T09:44:00;0.80;;;0.80;;
6977;SDS011;3529;53.244;10.414;2022-08-21T09:46:27;1.15;;;1.10;;
6977;SDS011;3529;53.244;10.414;2022-08-21T09:48:54;0.90;;;0.90;;
6977;SDS011;3529;53.244;10.414;2022-08-21T09:51:26;0.80;;;0.80;;
6977;SDS011;3529;53.244;10.414;2022-08-21T09:54:18;1.00;;;0.90;;
6977;SDS011;3529;53.244;10.414;2022-08-21T09:56:53;0.43;;;0.43;;
6977;SDS011;3529;53.244;10.414;2022-08-21T09:59:40;0.63;;;0.63;;
6977;SDS011;3529;53.244;10.414;2022-08-21T10:02:27;1.08;;;1.08;;
6977;SDS011;3529;53.244;10.414;2022-08-21T10:05:15;0.80;;;0.80;;
6977;SDS011;3529;53.244;10.414;2022-08-21T10:07:43;1.20;;;0.88;;
6977;SDS011;3529;53.244;10.414;2022-08-21T10:10:14;0.80;;;0.80;;
6977;SDS011;3529;53.244;10.414;2022-08-21T10:13:32;0.77;;;0.77;;
6977;SDS011;3529;53.244;10.414;2022-08-21T10:15:52;1.27;;;1.17;;
6977;SDS011;3529;53.244;10.414;2022-08-21T10:21:22;0.50;;;0.50;;
6977;SDS011;3529;53.244;10.414;2022-08-21T10:24:12;0.70;;;0.70;;
6977;SDS011;3529;53.244;10.414;2022-08-21T10:27:02;0.70;;;0.65;;
6977;SDS011;3529;53.244;10.414;2022-08-21T10:32:50;0.43;;;0.43;;
6977;SDS011;3529;53.244;10.414;2022-08-21T10:36:29;0.60;;;0.60;;
6977;SDS011;3529;53.244;10.414;2022-08-21T10:47:10;0.60;;;0.60;;
6977;SDS011;3529;53.244;10.414;2022-08-21T10:49:55;0.60;;;0.60;;
6977;SDS011;3529;53.244;10.414;2022-08-21T10:52:43;0.73;;;0.73;;
6977;SDS011;3529;53.244;10.414;2022-08-21T10:55:20;1.65;;;0.77;;
6977;SDS011;3529;53.244;10.414;2022-08-21T10:58:09;1.30;;;0.88;;
6977;SDS011;3529;53.244;10.414;2022-08-21T11:00:48;0.80;;;0.80;;
6977;SDS011;3529;53.244;10.414;2022-08-21T11:03:24;0.95;;;0.70;;
6977;SDS011;3529;53.244;10.414;2022-08-21T11:06:13;0.70;;;0.70;;
6977;SDS011;3529;53.244;10.414;2022-08-21T11:08:46;0.60;;;0.60;;
6977;SDS011;3529;53.244;10.414;2022-08-21T11:11:21;0.70;;;0.70;;
6977;SDS011;3529;53.244;10.414;2022-08-21T11:23:05;0.80;;;0.80;;
6977;SDS011;3529;53.244;10.414;2022-08-21T11:25:07;0.45;;;0.45;;
6977;SDS011;3529;53.244;10.414;2022-08-21T11:27:45;0.50;;;0.50;;
6977;SDS011;3529;53.244;10.414;2022-08-21T11:30:15;1.08;;;0.60;;
6977;SDS011;3529;53.244;10.414;2022-08-21T11:32:54;0.65;;;0.57;;
6977;SDS011;3529;53.244;10.414;2022-08-21T11:38:20;0.57;;;0.57;;
6977;SDS011;3529;53.244;10.414;2022-08-21T11:58:11;0.80;;;0.80;;
6977;SDS011;3529;53.244;10.414;2022-08-21T12:00:52;0.90;;;0.90;;
6977;SDS011;3529;53.244;10.414;2022-08-21T12:03:33;0.65;;;0.65;;
6977;SDS011;3529;53.244;10.414;2022-08-21T12:06:05;0.70;;;0.70;;
6977;SDS011;3529;53.244;10.414;2022-08-21T12:08:38;0.70;;;0.70;;
6977;SDS011;3529;53.244;10.414;2022-08-21T12:13:52;6.28;;;0.93;;
6977;SDS011;3529;53.244;10.414;2022-08-21T12:16:31;0.70;;;0.70;;
6977;SDS011;3529;53.244;10.414;2022-08-21T12:19:03;0.70;;;0.70;;
6977;SDS011;3529;53.244;10.414;2022-08-21T12:21:51;0.80;;;0.80;;
6977;SDS011;3529;53.244;10.414;2022-08-21T12:31:54;0.50;;;0.50;;
6977;SDS011;3529;53.244;10.414;2022-08-21T12:34:50;0.55;;;0.55;;
6977;SDS011;3529;53.244;10.414;2022-08-21T12:37:44;0.65;;;0.65;;
6977;SDS011;3529;53.244;10.414;2022-08-21T12:42:47;0.55;;;0.55;;
6977;SDS011;3529;53.244;10.414;2022-08-21T12:45:49;0.52;;;0.52;;
6977;SDS011;3529;53.244;10.414;2022-08-21T12:48:16;0.65;;;0.65;;
6977;SDS011;3529;53.244;10.414;2022-08-21T12:53:17;0.60;;;0.60;;
6977;SDS011;3529;53.244;10.414;2022-08-21T12:55:52;1.55;;;0.88;;
6977;SDS011;3529;53.244;10.414;2022-08-21T12:58:24;0.60;;;0.60;;
6977;SDS011;3529;53.244;10.414;2022-08-21T13:00:52;0.45;;;0.45;;
6977;SDS011;3529;53.244;10.414;2022-08-21T13:03:42;0.70;;;0.70;;
6977;SDS011;3529;53.244;10.414;2022-08-21T13:06:12;0.68;;;0.68;;
6977;SDS011;3529;53.244;10.414;2022-08-21T13:08:41;0.80;;;0.80;;
6977;SDS011;3529;53.244;10.414;2022-08-21T13:11:10;1.17;;;1.05;;
6977;SDS011;3529;53.244;10.414;2022-08-21T13:13:39;0.70;;;0.70;;
6977;SDS011;3529;53.244;10.414;2022-08-21T13:16:05;0.73;;;0.73;;
6977;SDS011;3529;53.244;10.414;2022-08-21T13:18:33;0.68;;;0.68;;
6977;SDS011;3529;53.244;10.414;2022-08-21T13:21:16;0.60;;;0.60;;
6977;SDS011;3529;53.244;10.414;2022-08-21T13:23:41;0.60;;;0.60;;
6977;SDS011;3529;53.244;10.414;2022-08-21T13:28:43;0.60;;;0.60;;
6977;SDS011;3529;53.244;10.414;2022-08-21T13:31:13;2.08;;;0.90;;
6977;SDS011;3529;53.244;10.414;2022-08-21T13:33:46;0.73;;;0.73;;
6977;SDS011;3529;53.244;10.414;2022-08-21T13:36:16;0.60;;;0.60;;
6977;SDS011;3529;53.244;10.414;2022-08-21T13:38:45;0.70;;;0.70;;
6977;SDS011;3529;53.244;10.414;2022-08-21T13:43:56;0.70;;;0.70;;
6977;SDS011;3529;53.244;10.414;2022-08-21T13:46:24;0.60;;;0.60;;
6977;SDS011;3529;53.244;10.414;2022-08-21T13:48:54;0.60;;;0.60;;
6977;SDS011;3529;53.244;10.414;2022-08-21T13:51:21;0.50;;;0.50;;
6977;SDS011;3529;53.244;10.414;2022-08-21T13:53:48;0.65;;;0.65;;
6977;SDS011;3529;53.244;10.414;2022-08-21T13:58:51;0.60;;;0.60;;
6977;SDS011;3529;53.244;10.414;2022-08-21T14:01:28;0.60;;;0.60;;
6977;SDS011;3529;53.244;10.414;2022-08-21T14:04:05;0.93;;;0.93;;
6977;SDS011;3529;53.244;10.414;2022-08-21T14:06:37;2.90;;;1.20;;
6977;SDS011;3529;53.244;10.414;2022-08-21T14:09:07;0.70;;;0.70;;
6977;SDS011;3529;53.244;10.414;2022-08-21T14:11:38;2.72;;;0.70;;
6977;SDS011;3529;53.244;10.414;2022-08-21T14:14:50;0.63;;;0.63;;
6977;SDS011;3529;53.244;10.414;2022-08-21T14:17:00;0.90;;;0.90;;
6977;SDS011;3529;53.244;10.414;2022-08-21T14:19:38;0.70;;;0.70;;
6977;SDS011;3529;53.244;10.414;2022-08-21T14:25:42;0.73;;;0.73;;
6977;SDS011;3529;53.244;10.414;2022-08-21T14:30:41;0.73;;;0.73;;
6977;SDS011;3529;53.244;10.414;2022-08-21T14:33:09;0.70;;;0.70;;
6977;SDS011;3529;53.244;10.414;2022-08-21T14:35:37;0.77;;;0.77;;
6977;SDS011;3529;53.244;10.414;2022-08-21T14:38:10;0.70;;;0.70;;
6977;SDS011;3529;53.244;10.414;2022-08-21T14:40:45;0.90;;;0.90;;
6977;SDS011;3529;53.244;10.414;2022-08-21T14:43:15;0.75;;;0.75;;
6977;SDS011;3529;53.244;10.414;2022-08-21T14:45:41;0.77;;;0.77;;
6977;SDS011;3529;53.244;10.414;2022-08-21T14:48:08;0.70;;;0.70;;
6977;SDS011;3529;53.244;10.414;2022-08-21T14:50:34;0.80;;;0.80;;
6977;SDS011;3529;53.244;10.414;2022-08-21T14:53:00;0.70;;;0.70;;
6977;SDS011;3529;53.244;10.414;2022-08-21T14:55:26;0.90;;;0.90;;
6977;SDS011;3529;53.244;10.414;2022-08-21T14:57:52;0.50;;;0.50;;
6977;SDS011;3529;53.244;10.414;2022-08-21T15:00:20;0.80;;;0.80;;
6977;SDS011;3529;53.244;10.414;2022-08-21T15:02:50;0.90;;;0.90;;
6977;SDS011;3529;53.244;10.414;2022-08-21T15:05:17;1.17;;;1.17;;
6977;SDS011;3529;53.244;10.414;2022-08-21T15:07:43;0.70;;;0.70;;
6977;SDS011;3529;53.244;10.414;2022-08-21T15:10:10;1.15;;;1.02;;
6977;SDS011;3529;53.244;10.414;2022-08-21T15:12:36;0.60;;;0.60;;
6977;SDS011;3529;53.244;10.414;2022-08-21T15:15:04;0.95;;;0.95;;
6977;SDS011;3529;53.244;10.414;2022-08-21T15:17:30;0.85;;;0.85;;
6977;SDS011;3529;53.244;10.414;2022-08-21T15:19:56;0.60;;;0.60;;
6977;SDS011;3529;53.244;10.414;2022-08-21T15:22:22;0.90;;;0.90;;
6977;SDS011;3529;53.244;10.414;2022-08-21T15:24:47;0.80;;;0.80;;
6977;SDS011;3529;53.244;10.414;2022-08-21T15:27:13;0.70;;;0.70;;
6977;SDS011;3529;53.244;10.414;2022-08-21T15:29:41;0.82;;;0.82;;
6977;SDS011;3529;53.244;10.414;2022-08-21T15:32:17;0.68;;;0.68;;
6977;SDS011;3529;53.244;10.414;2022-08-21T15:34:47;0.80;;;0.80;;
6977;SDS011;3529;53.244;10.414;2022-08-21T15:37:12;0.93;;;0.93;;
6977;SDS011;3529;53.244;10.414;2022-08-21T15:39:38;0.70;;;0.70;;
6977;SDS011;3529;53.244;10.414;2022-08-21T15:42:04;0.88;;;0.88;;
6977;SDS011;3529;53.244;10.414;2022-08-21T15:44:30;1.13;;;1.13;;
6977;SDS011;3529;53.244;10.414;2022-08-21T15:46:55;0.70;;;0.70;;
6977;SDS011;3529;53.244;10.414;2022-08-21T15:49:22;1.27;;;1.17;;
6977;SDS011;3529;53.244;10.414;2022-08-21T15:51:47;1.05;;;1.00;;
6977;SDS011;3529;53.244;10.414;2022-08-21T15:54:13;0.80;;;0.80;;
6977;SDS011;3529;53.244;10.414;2022-08-21T15:56:39;0.90;;;0.90;;
6977;SDS011;3529;53.244;10.414;2022-08-21T15:59:08;1.52;;;0.80;;
6977;SDS011;3529;53.244;10.414;2022-08-21T16:01:39;1.00;;;0.90;;
6977;SDS011;3529;53.244;10.414;2022-08-21T16:04:05;1.08;;;1.08;;
6977;SDS011;3529;53.244;10.414;2022-08-21T16:06:32;0.80;;;0.80;;
6977;SDS011;3529;53.244;10.414;2022-08-21T16:08:58;0.80;;;0.80;;
6977;SDS011;3529;53.244;10.414;2022-08-21T16:11:24;4.78;;;1.10;;
6977;SDS011;3529;53.244;10.414;2022-08-21T16:13:50;1.20;;;0.90;;
6977;SDS011;3529;53.244;10.414;2022-08-21T16:16:16;0.80;;;0.80;;
6977;SDS011;3529;53.244;10.414;2022-08-21T16:18:44;0.80;;;0.80;;
6977;SDS011;3529;53.244;10.414;2022-08-21T16:21:11;4.63;;;0.93;;
6977;SDS011;3529;53.244;10.414;2022-08-21T16:23:36;0.88;;;0.88;;
6977;SDS011;3529;53.244;10.414;2022-08-21T16:26:04;0.93;;;0.93;;
6977;SDS011;3529;53.244;10.414;2022-08-21T16:28:31;0.90;;;0.90;;
6977;SDS011;3529;53.244;10.414;2022-08-21T16:30:59;1.10;;;1.10;;
6977;SDS011;3529;53.244;10.414;2022-08-21T16:33:27;0.93;;;0.93;;
6977;SDS011;3529;53.244;10.414;2022-08-21T16:35:57;0.80;;;0.80;;
6977;SDS011;3529;53.244;10.414;2022-08-21T16:38:24;0.82;;;0.82;;